createdAt,value
2017-08-09T00:00:47.647Z,14.80
2017-08-09T00:03:15.925Z,14.80
2017-08-09T00:05:44.212Z,14.80
2017-08-09T00:08:11.715Z,14.80
2017-08-09T00:10:39.219Z,14.90
2017-08-09T00:13:07.502Z,14.90
2017-08-09T00:15:35.767Z,14.90
2017-08-09T00:18:04.064Z,14.90
2017-08-09T00:20:31.569Z,14.90
2017-08-09T00:22:59.108Z,14.90
2017-08-09T00:25:26.606Z,15.00
2017-08-09T00:27:54.102Z,15.00
2017-08-09T00:30:21.620Z,15.00
2017-08-09T00:32:49.135Z,15.10
2017-08-09T00:35:16.645Z,15.10
2017-08-09T00:37:44.147Z,15.00
2017-08-09T00:40:11.667Z,15.00
2017-08-09T00:42:39.935Z,15.00
2017-08-09T00:45:07.436Z,15.00
2017-08-09T00:47:34.953Z,15.00
2017-08-09T00:50:03.219Z,15.00
2017-08-09T00:52:30.808Z,15.00
2017-08-09T00:54:59.074Z,14.90
2017-08-09T00:57:27.362Z,14.80
2017-08-09T00:59:54.859Z,14.80
2017-08-09T01:02:22.359Z,14.80
2017-08-09T01:04:50.642Z,14.70
2017-08-09T01:07:18.151Z,14.70
2017-08-09T01:09:45.662Z,14.80
2017-08-09T01:12:13.926Z,15.00
2017-08-09T01:14:41.468Z,15.00
2017-08-09T01:17:08.971Z,15.00
2017-08-09T01:19:36.475Z,15.10
2017-08-09T01:22:03.990Z,15.10
2017-08-09T01:24:31.495Z,15.10
2017-08-09T01:26:59.014Z,15.10
2017-08-09T01:29:26.524Z,15.00
2017-08-09T01:31:54.062Z,15.00
2017-08-09T01:34:21.559Z,15.00
2017-08-09T01:36:49.823Z,15.10
2017-08-09T01:39:17.339Z,15.10
2017-08-09T01:41:44.835Z,15.10
2017-08-09T01:44:12.355Z,15.20
2017-08-09T01:46:39.856Z,15.10
2017-08-09T01:49:07.396Z,15.20
2017-08-09T01:51:34.894Z,15.10
2017-08-09T01:54:02.395Z,15.00
2017-08-09T01:56:29.915Z,15.00
2017-08-09T01:58:57.411Z,15.00
2017-08-09T02:01:24.936Z,15.00
2017-08-09T02:03:52.440Z,15.00
2017-08-09T02:06:19.971Z,15.10
2017-08-09T02:08:47.472Z,15.10
2017-08-09T02:11:14.975Z,15.10
2017-08-09T02:13:42.497Z,15.10
2017-08-09T02:16:10.000Z,15.10
2017-08-09T02:18:37.519Z,15.10
2017-08-09T02:21:05.791Z,15.10
2017-08-09T02:23:33.307Z,15.10
2017-08-09T02:26:00.802Z,15.10
2017-08-09T02:28:28.308Z,15.10
2017-08-09T02:30:55.872Z,15.10
2017-08-09T02:33:23.371Z,15.20
2017-08-09T02:35:50.891Z,15.10
2017-08-09T02:38:18.390Z,15.10
2017-08-09T02:40:45.915Z,15.10
2017-08-09T02:43:13.412Z,15.10
2017-08-09T02:45:40.923Z,15.10
2017-08-09T02:48:08.448Z,15.20
2017-08-09T02:50:35.957Z,15.20
2017-08-09T02:53:03.474Z,15.20
2017-08-09T02:55:30.980Z,15.10
2017-08-09T02:57:58.510Z,15.10
2017-08-09T03:00:26.006Z,15.20
2017-08-09T03:02:53.499Z,15.10
2017-08-09T03:05:21.019Z,15.10
2017-08-09T03:07:48.519Z,15.10
2017-08-09T03:10:16.035Z,15.20
2017-08-09T03:12:43.540Z,15.20
2017-08-09T03:15:11.079Z,15.20
2017-08-09T03:17:39.347Z,15.20
2017-08-09T03:20:06.867Z,15.20
2017-08-09T03:22:34.382Z,15.20
2017-08-09T03:25:01.887Z,15.20
2017-08-09T03:27:29.403Z,15.20
2017-08-09T03:29:56.903Z,15.20
2017-08-09T03:32:24.426Z,15.30
2017-08-09T03:34:51.940Z,15.20
2017-08-09T03:37:23.483Z,15.10
2017-08-09T03:39:51.179Z,15.10
2017-08-09T03:42:18.706Z,15.20
2017-08-09T03:44:46.218Z,15.20
2017-08-09T03:47:13.715Z,15.10
2017-08-09T03:49:41.234Z,15.10
2017-08-09T03:52:08.731Z,15.20
2017-08-09T03:54:36.235Z,15.20
2017-08-09T03:57:03.747Z,15.20
2017-08-09T03:59:31.282Z,15.20
2017-08-09T04:01:58.798Z,15.20
2017-08-09T04:04:26.295Z,15.10
2017-08-09T04:06:53.831Z,15.10
2017-08-09T04:09:21.335Z,15.00
2017-08-09T04:11:48.834Z,15.00
2017-08-09T04:14:16.355Z,14.90
2017-08-09T04:16:43.863Z,14.90
2017-08-09T04:19:11.389Z,15.00
2017-08-09T04:21:38.887Z,14.90
2017-08-09T04:24:06.416Z,14.80
2017-08-09T04:26:34.686Z,14.80
2017-08-09T04:29:02.182Z,14.70
2017-08-09T04:31:29.704Z,14.70
2017-08-09T04:33:57.979Z,14.80
2017-08-09T04:36:25.491Z,14.80
2017-08-09T04:38:52.993Z,14.90
2017-08-09T04:41:20.515Z,14.90
2017-08-09T04:43:48.015Z,14.80
2017-08-09T04:46:15.511Z,14.90
2017-08-09T04:48:43.031Z,14.90
2017-08-09T04:51:10.541Z,14.90
2017-08-09T04:53:38.054Z,14.90
2017-08-09T04:56:06.357Z,15.00
2017-08-09T04:58:33.905Z,15.00
2017-08-09T05:01:01.407Z,15.00
2017-08-09T05:03:28.907Z,14.90
2017-08-09T05:05:56.423Z,14.90
2017-08-09T05:08:23.919Z,14.90
2017-08-09T05:10:52.207Z,14.80
2017-08-09T05:13:20.474Z,14.80
2017-08-09T05:15:48.776Z,14.90
2017-08-09T05:18:16.291Z,14.90
2017-08-09T05:20:43.792Z,14.90
2017-08-09T05:23:11.312Z,15.00
2017-08-09T05:25:38.815Z,15.00
2017-08-09T05:28:06.335Z,15.00
2017-08-09T05:30:33.901Z,15.00
2017-08-09T05:33:01.428Z,15.00
2017-08-09T05:35:28.931Z,15.00
2017-08-09T05:37:56.454Z,15.00
2017-08-09T05:40:23.959Z,15.00
2017-08-09T05:42:51.483Z,15.00
2017-08-09T05:45:18.989Z,15.00
2017-08-09T05:47:46.528Z,15.10
2017-08-09T05:50:14.031Z,15.10
2017-08-09T05:52:41.551Z,15.20
2017-08-09T05:55:09.080Z,15.30
2017-08-09T05:57:37.354Z,15.40
2017-08-09T06:00:05.664Z,15.50
2017-08-09T06:02:33.164Z,15.50
2017-08-09T06:05:00.688Z,15.60
2017-08-09T06:07:28.188Z,15.60
2017-08-09T06:09:55.699Z,15.60
2017-08-09T06:12:23.199Z,15.70
2017-08-09T06:14:50.710Z,15.70
2017-08-09T06:17:18.216Z,15.70
2017-08-09T06:19:45.747Z,15.70
2017-08-09T06:22:13.298Z,15.70
2017-08-09T06:24:40.816Z,15.90
2017-08-09T06:27:09.087Z,16.10
2017-08-09T06:29:37.376Z,16.10
2017-08-09T06:32:04.883Z,16.10
2017-08-09T06:34:32.406Z,16.20
2017-08-09T06:36:59.905Z,16.20
2017-08-09T06:39:27.429Z,16.30
2017-08-09T06:41:54.926Z,16.40
2017-08-09T06:44:22.443Z,16.70
2017-08-09T06:46:49.945Z,17.10
2017-08-09T06:49:17.472Z,17.30
2017-08-09T06:51:44.987Z,17.50
2017-08-09T06:54:12.487Z,17.30
2017-08-09T06:56:40.006Z,17.30
2017-08-09T06:59:07.511Z,17.50
2017-08-09T07:01:35.028Z,17.60
2017-08-09T07:04:03.296Z,18.10
2017-08-09T07:06:30.821Z,18.00
2017-08-09T07:08:58.324Z,17.80
2017-08-09T07:11:25.842Z,17.50
2017-08-09T07:13:53.343Z,17.90
2017-08-09T07:16:21.627Z,18.60
2017-08-09T07:18:49.155Z,18.60
2017-08-09T07:21:16.672Z,19.00
2017-08-09T07:23:44.173Z,19.10
2017-08-09T07:26:12.484Z,19.00
2017-08-09T07:28:39.998Z,19.00
2017-08-09T07:31:07.515Z,19.40
2017-08-09T07:33:35.019Z,19.40
2017-08-09T07:36:02.538Z,19.50
2017-08-09T07:38:30.048Z,19.60
2017-08-09T07:40:58.315Z,19.20
2017-08-09T07:43:25.826Z,19.20
2017-08-09T07:45:53.327Z,19.30
2017-08-09T07:48:20.846Z,19.20
2017-08-09T07:50:48.348Z,18.80
2017-08-09T07:53:15.871Z,18.80
2017-08-09T07:55:43.367Z,18.70
2017-08-09T07:58:10.887Z,18.80
2017-08-09T08:00:38.387Z,18.90
2017-08-09T08:03:05.903Z,19.10
2017-08-09T08:05:33.402Z,18.80
2017-08-09T08:08:00.920Z,18.80
2017-08-09T08:10:28.428Z,18.70
2017-08-09T08:12:56.715Z,18.50
2017-08-09T08:15:24.978Z,18.30
2017-08-09T08:17:52.490Z,18.20
2017-08-09T08:20:19.996Z,18.10
2017-08-09T08:22:47.519Z,18.40
2017-08-09T08:25:15.024Z,18.90
2017-08-09T08:27:43.307Z,19.00
2017-08-09T08:30:10.815Z,19.00
2017-08-09T08:32:38.342Z,19.00
2017-08-09T08:35:05.847Z,19.20
2017-08-09T08:37:33.350Z,19.00
2017-08-09T08:40:00.864Z,19.20
2017-08-09T08:42:28.363Z,19.00
2017-08-09T08:44:55.875Z,19.20
2017-08-09T08:47:23.373Z,19.30
2017-08-09T08:49:50.895Z,19.30
2017-08-09T08:52:18.404Z,19.20
2017-08-09T08:54:45.932Z,19.10
2017-08-09T08:57:13.436Z,19.30
2017-08-09T08:59:40.957Z,19.20
2017-08-09T09:02:08.459Z,19.30
2017-08-09T09:04:35.975Z,19.40
2017-08-09T09:07:03.479Z,19.50
2017-08-09T09:09:30.999Z,19.50
2017-08-09T09:11:58.510Z,19.40
2017-08-09T09:14:26.034Z,19.40
2017-08-09T09:16:53.542Z,19.70
2017-08-09T09:19:21.074Z,19.80
2017-08-09T09:21:48.578Z,19.70
2017-08-09T09:24:16.112Z,19.70
2017-08-09T09:26:43.615Z,20.00
2017-08-09T09:29:11.155Z,19.80
2017-08-09T09:31:39.424Z,19.90
2017-08-09T09:34:07.688Z,20.50
2017-08-09T09:36:35.213Z,20.50
2017-08-09T09:39:02.715Z,21.00
2017-08-09T09:41:31.002Z,20.20
2017-08-09T09:43:58.507Z,20.10
2017-08-09T09:46:26.023Z,20.00
2017-08-09T09:48:53.539Z,20.00
2017-08-09T09:51:21.055Z,20.10
2017-08-09T09:53:48.555Z,20.40
2017-08-09T09:56:16.066Z,20.90
2017-08-09T09:58:43.571Z,20.80
2017-08-09T10:01:11.091Z,20.50
2017-08-09T10:03:38.591Z,20.80
2017-08-09T10:06:06.115Z,21.00
2017-08-09T10:08:33.619Z,20.90
2017-08-09T10:11:01.143Z,20.70
2017-08-09T10:13:28.647Z,20.80
2017-08-09T10:15:56.932Z,20.50
2017-08-09T10:18:24.436Z,20.50
2017-08-09T10:20:51.961Z,20.50
2017-08-09T10:23:19.460Z,20.70
2017-08-09T10:25:46.955Z,20.90
2017-08-09T10:28:15.235Z,21.40
2017-08-09T10:30:43.502Z,21.10
2017-08-09T10:33:11.787Z,20.80
2017-08-09T10:35:40.055Z,21.10
2017-08-09T10:38:07.576Z,21.10
2017-08-09T10:40:35.075Z,21.60
2017-08-09T10:43:03.354Z,21.70
2017-08-09T10:45:31.630Z,21.60
2017-08-09T10:47:59.911Z,21.60
2017-08-09T10:50:27.412Z,21.60
2017-08-09T10:52:54.931Z,21.40
2017-08-09T10:55:22.435Z,21.30
2017-08-09T10:57:49.956Z,20.80
2017-08-09T11:00:17.460Z,20.50
2017-08-09T11:02:44.975Z,20.20
2017-08-09T11:05:12.483Z,20.30
2017-08-09T11:07:40.003Z,20.40
2017-08-09T11:10:07.567Z,20.60
2017-08-09T11:12:35.087Z,21.30
2017-08-09T11:15:02.591Z,21.80
2017-08-09T11:17:30.140Z,22.10
2017-08-09T11:19:57.644Z,22.10
2017-08-09T11:22:25.926Z,21.40
2017-08-09T11:24:53.448Z,21.40
2017-08-09T11:27:20.960Z,21.20
2017-08-09T11:29:48.486Z,21.10
2017-08-09T11:32:15.991Z,21.00
2017-08-09T11:34:43.511Z,21.00
2017-08-09T11:37:11.025Z,21.10
2017-08-09T11:39:38.542Z,21.00
2017-08-09T11:42:06.807Z,20.70
2017-08-09T11:44:34.334Z,20.70
2017-08-09T11:47:01.844Z,20.50
2017-08-09T11:49:30.132Z,20.40
2017-08-09T11:51:57.639Z,20.40
2017-08-09T11:54:25.157Z,20.40
2017-08-09T11:56:52.663Z,20.40
2017-08-09T11:59:20.191Z,20.40
2017-08-09T12:01:47.695Z,20.50
2017-08-09T12:04:15.221Z,20.80
2017-08-09T12:06:42.719Z,21.10
2017-08-09T12:09:10.240Z,21.20
2017-08-09T12:11:37.750Z,21.40
2017-08-09T12:14:05.258Z,21.30
2017-08-09T12:16:32.787Z,21.40
2017-08-09T12:19:00.287Z,21.30
2017-08-09T12:21:27.814Z,21.30
2017-08-09T12:23:55.320Z,21.30
2017-08-09T12:26:22.847Z,21.40
2017-08-09T12:28:50.349Z,21.00
2017-08-09T12:31:18.627Z,21.00
2017-08-09T12:33:46.416Z,21.00
2017-08-09T12:36:13.935Z,20.90
2017-08-09T12:38:41.439Z,20.80
2017-08-09T12:41:08.951Z,20.60
2017-08-09T12:43:36.452Z,20.50
2017-08-09T12:46:03.974Z,20.40
2017-08-09T12:48:32.243Z,20.50
2017-08-09T12:50:59.767Z,20.50
2017-08-09T12:53:27.263Z,20.60
2017-08-09T12:55:54.796Z,20.70
2017-08-09T12:58:22.299Z,20.80
2017-08-09T13:00:49.814Z,20.80
2017-08-09T13:03:17.319Z,20.80
2017-08-09T13:05:44.863Z,20.90
2017-08-09T13:08:13.136Z,20.80
2017-08-09T13:10:40.631Z,20.70
2017-08-09T13:13:08.143Z,20.80
2017-08-09T13:15:35.652Z,20.90
2017-08-09T13:18:03.181Z,20.80
2017-08-09T13:20:30.679Z,20.70
2017-08-09T13:22:58.195Z,20.80
2017-08-09T13:25:25.699Z,20.80
2017-08-09T13:27:53.214Z,20.80
2017-08-09T13:30:20.723Z,20.70
2017-08-09T13:32:48.266Z,20.70
2017-08-09T13:35:15.767Z,20.80
2017-08-09T13:37:43.293Z,20.80
2017-08-09T13:40:10.800Z,20.80
2017-08-09T13:42:39.083Z,21.10
2017-08-09T13:45:06.598Z,21.10
2017-08-09T13:47:34.111Z,21.00
2017-08-09T13:50:01.615Z,21.00
2017-08-09T13:52:29.139Z,21.10
2017-08-09T13:54:56.643Z,21.10
2017-08-09T13:57:24.173Z,21.10
2017-08-09T13:59:51.675Z,21.00
2017-08-09T14:02:19.954Z,21.20
2017-08-09T14:04:48.239Z,21.00
2017-08-09T14:07:15.743Z,21.00
2017-08-09T14:09:43.267Z,21.00
2017-08-09T14:12:10.771Z,20.90
2017-08-09T14:14:38.291Z,20.80
2017-08-09T14:17:05.791Z,20.80
2017-08-09T14:19:33.303Z,20.80
2017-08-09T14:22:00.810Z,20.80
2017-08-09T14:24:28.332Z,20.90
2017-08-09T14:26:55.839Z,20.80
2017-08-09T14:29:23.359Z,20.80
2017-08-09T14:31:50.864Z,21.00
2017-08-09T14:34:19.147Z,21.10
2017-08-09T14:36:46.642Z,21.10
2017-08-09T14:39:14.173Z,21.20
2017-08-09T14:41:41.676Z,21.30
2017-08-09T14:44:09.203Z,21.30
2017-08-09T14:46:36.702Z,21.30
2017-08-09T14:49:04.227Z,21.30
2017-08-09T14:51:31.731Z,21.40
2017-08-09T14:53:59.232Z,21.40
2017-08-09T14:56:26.743Z,21.40
2017-08-09T14:58:54.251Z,21.40
2017-08-09T15:01:21.769Z,21.30
2017-08-09T15:03:49.271Z,21.30
2017-08-09T15:06:16.791Z,21.30
2017-08-09T15:08:44.293Z,21.20
2017-08-09T15:11:11.811Z,21.30
2017-08-09T15:13:40.081Z,21.40
2017-08-09T15:16:07.611Z,21.40
2017-08-09T15:18:35.119Z,21.40
2017-08-09T15:21:02.639Z,21.40
2017-08-09T15:23:30.143Z,21.30
2017-08-09T15:25:57.664Z,21.20
2017-08-09T15:28:25.169Z,21.20
2017-08-09T15:30:52.696Z,21.20
2017-08-09T15:33:20.296Z,21.00
2017-08-09T15:35:47.817Z,21.10
2017-08-09T15:38:15.316Z,21.20
2017-08-09T15:40:42.845Z,21.40
2017-08-09T15:43:10.349Z,21.50
2017-08-09T15:45:37.875Z,21.50
2017-08-09T15:48:05.385Z,21.60
2017-08-09T15:50:32.909Z,21.60
2017-08-09T15:53:00.431Z,21.60
2017-08-09T15:55:28.707Z,21.40
2017-08-09T15:57:56.243Z,21.40
2017-08-09T16:00:23.747Z,21.30
2017-08-09T16:02:51.337Z,21.30
2017-08-09T16:05:18.847Z,21.30
2017-08-09T16:07:46.372Z,21.40
2017-08-09T16:10:13.882Z,21.40
2017-08-09T16:12:41.404Z,21.40
2017-08-09T16:15:09.681Z,21.40
2017-08-09T16:17:37.973Z,21.40
2017-08-09T16:20:05.473Z,21.40
2017-08-09T16:22:32.990Z,21.30
2017-08-09T16:25:00.494Z,21.20
2017-08-09T16:27:28.007Z,21.20
2017-08-09T16:29:55.508Z,21.10
2017-08-09T16:32:23.022Z,21.20
2017-08-09T16:34:50.523Z,21.20
2017-08-09T16:37:18.035Z,21.10
2017-08-09T16:39:46.303Z,21.10
2017-08-09T16:42:14.572Z,21.00
2017-08-09T16:44:42.092Z,21.00
2017-08-09T16:47:09.596Z,20.90
2017-08-09T16:49:37.880Z,20.80
2017-08-09T16:52:06.142Z,20.80
2017-08-09T16:54:33.659Z,20.80
2017-08-09T16:57:01.167Z,20.70
2017-08-09T16:59:28.683Z,20.70
2017-08-09T17:01:56.191Z,20.70
2017-08-09T17:04:23.707Z,20.60
2017-08-09T17:06:51.207Z,20.60
2017-08-09T17:09:18.729Z,20.60
2017-08-09T17:11:46.227Z,20.60
2017-08-09T17:14:13.744Z,20.60
2017-08-09T17:16:41.250Z,20.70
2017-08-09T17:19:08.766Z,20.60
2017-08-09T17:21:36.512Z,20.60
2017-08-09T17:24:04.096Z,20.60
2017-08-09T17:26:31.724Z,20.50
2017-08-09T17:28:59.239Z,20.50
2017-08-09T17:31:26.740Z,20.50
2017-08-09T17:33:54.280Z,20.40
2017-08-09T17:36:21.787Z,20.40
2017-08-09T17:38:49.293Z,20.40
2017-08-09T17:41:16.815Z,20.40
2017-08-09T17:43:44.315Z,20.40
2017-08-09T17:46:11.836Z,20.20
2017-08-09T17:48:40.107Z,20.20
2017-08-09T17:51:07.644Z,20.20
2017-08-09T17:53:35.152Z,20.20
2017-08-09T17:56:02.673Z,20.20
2017-08-09T17:58:30.179Z,20.20
2017-08-09T18:00:57.708Z,20.20
2017-08-09T18:03:25.982Z,20.10
2017-08-09T18:05:54.262Z,20.10
2017-08-09T18:08:21.763Z,20.10
2017-08-09T18:10:49.282Z,20.10
2017-08-09T18:13:16.787Z,20.10
2017-08-09T18:15:44.304Z,20.00
2017-08-09T18:18:11.799Z,20.00
2017-08-09T18:20:39.340Z,19.90
2017-08-09T18:23:06.843Z,19.90
2017-08-09T18:25:34.338Z,19.90
2017-08-09T18:28:01.859Z,19.90
2017-08-09T18:30:29.359Z,19.80
2017-08-09T18:32:56.876Z,19.80
2017-08-09T18:35:24.379Z,19.80
2017-08-09T18:37:51.923Z,19.70
2017-08-09T18:40:19.429Z,19.70
2017-08-09T18:42:46.931Z,19.70
2017-08-09T18:45:15.211Z,19.60
2017-08-09T18:47:42.711Z,19.50
2017-08-09T18:50:10.540Z,19.40
2017-08-09T18:52:38.831Z,19.40
2017-08-09T18:55:06.375Z,19.30
2017-08-09T18:57:33.881Z,19.30
2017-08-09T19:00:01.379Z,19.30
2017-08-09T19:02:29.671Z,19.30
2017-08-09T19:04:57.167Z,19.30
2017-08-09T19:07:24.678Z,19.30
2017-08-09T19:09:52.947Z,19.20
2017-08-09T19:12:20.544Z,19.20
2017-08-09T19:14:48.039Z,19.20
2017-08-09T19:17:15.535Z,19.20
2017-08-09T19:19:43.059Z,19.20
2017-08-09T19:22:10.555Z,19.20
2017-08-09T19:24:38.072Z,19.20
2017-08-09T19:27:05.570Z,19.20
2017-08-09T19:29:33.102Z,19.20
2017-08-09T19:32:00.609Z,19.20
2017-08-09T19:34:28.110Z,19.20
2017-08-09T19:36:55.624Z,19.20
2017-08-09T19:39:23.140Z,19.20
2017-08-09T19:41:50.659Z,19.20
2017-08-09T19:44:18.165Z,19.10
2017-08-09T19:46:45.679Z,19.00
2017-08-09T19:49:13.187Z,19.00
2017-08-09T19:51:40.725Z,18.90
2017-08-09T19:54:08.223Z,18.90
2017-08-09T19:56:35.736Z,18.90
2017-08-09T19:59:03.240Z,18.80
2017-08-09T20:01:30.742Z,18.80
2017-08-09T20:03:58.259Z,18.70
2017-08-09T20:06:25.762Z,18.60
2017-08-09T20:08:53.279Z,18.60
2017-08-09T20:11:20.780Z,18.60
2017-08-09T20:13:48.331Z,18.50
2017-08-09T20:16:15.835Z,18.50
2017-08-09T20:18:43.342Z,18.50
2017-08-09T20:21:10.870Z,18.50
2017-08-09T20:23:38.376Z,18.50
2017-08-09T20:26:05.897Z,18.50
2017-08-09T20:28:33.407Z,18.50
2017-08-09T20:31:01.753Z,18.40
2017-08-09T20:33:29.276Z,18.40
2017-08-09T20:35:56.789Z,18.30
2017-08-09T20:38:25.088Z,18.30
2017-08-09T20:40:53.355Z,18.30
2017-08-09T20:43:20.863Z,18.30
2017-08-09T20:45:48.397Z,18.30
2017-08-09T20:48:15.904Z,18.30
2017-08-09T20:50:43.427Z,18.30
2017-08-09T20:53:10.935Z,18.30
2017-08-09T20:55:38.451Z,18.30
2017-08-09T20:58:05.952Z,18.30
2017-08-09T21:00:33.456Z,18.20
2017-08-09T21:03:00.982Z,18.30
2017-08-09T21:05:28.490Z,18.30
2017-08-09T21:07:56.018Z,18.30
2017-08-09T21:10:23.521Z,18.30
2017-08-09T21:12:51.043Z,18.30
2017-08-09T21:15:18.548Z,18.30
2017-08-09T21:17:46.076Z,18.30
2017-08-09T21:20:13.579Z,18.30
2017-08-09T21:22:41.082Z,18.40
2017-08-09T21:25:08.596Z,18.40
2017-08-09T21:27:36.863Z,18.20
2017-08-09T21:30:04.379Z,18.20
2017-08-09T21:32:31.880Z,18.20
2017-08-09T21:34:59.399Z,18.20
2017-08-09T21:37:26.902Z,18.10
2017-08-09T21:39:54.438Z,18.10
2017-08-09T21:42:21.939Z,18.00
2017-08-09T21:44:50.204Z,17.90
2017-08-09T21:47:17.728Z,17.90
2017-08-09T21:49:45.226Z,17.80
2017-08-09T21:52:13.512Z,17.70
2017-08-09T21:54:41.011Z,17.70
2017-08-09T21:57:08.523Z,17.60
2017-08-09T21:59:36.031Z,17.60
2017-08-09T22:02:03.563Z,17.60
2017-08-09T22:04:31.071Z,17.60
2017-08-09T22:06:58.571Z,17.60
2017-08-09T22:09:26.095Z,17.60
2017-08-09T22:11:53.595Z,17.50
2017-08-09T22:14:21.125Z,17.40
2017-08-09T22:16:48.630Z,17.40
2017-08-09T22:19:16.143Z,17.30
2017-08-09T22:21:43.638Z,17.20
2017-08-09T22:24:11.151Z,17.20
2017-08-09T22:26:38.668Z,17.10
2017-08-09T22:29:06.172Z,17.00
2017-08-09T22:31:33.698Z,16.90
2017-08-09T22:34:01.194Z,16.90
2017-08-09T22:36:29.479Z,16.90
2017-08-09T22:38:56.983Z,16.90
2017-08-09T22:41:24.508Z,16.90
2017-08-09T22:43:52.024Z,16.90
2017-08-09T22:46:19.543Z,17.00
2017-08-09T22:48:47.051Z,17.00
2017-08-09T22:51:15.337Z,17.00
2017-08-09T22:53:42.844Z,17.00
2017-08-09T22:56:10.362Z,17.10
2017-08-09T22:58:37.863Z,17.10
2017-08-09T23:01:05.383Z,17.10
2017-08-09T23:03:32.898Z,17.00
2017-08-09T23:06:00.413Z,17.00
2017-08-09T23:08:27.911Z,17.00
2017-08-09T23:10:55.427Z,17.00
2017-08-09T23:13:22.923Z,17.00
2017-08-09T23:15:50.447Z,16.90
2017-08-09T23:18:17.955Z,16.90
2017-08-09T23:20:45.478Z,16.80
2017-08-09T23:23:12.979Z,16.80
2017-08-09T23:25:41.250Z,16.90
2017-08-09T23:28:08.776Z,16.80
2017-08-09T23:30:36.283Z,16.80
2017-08-09T23:33:03.811Z,16.80
2017-08-09T23:35:31.315Z,16.80
2017-08-09T23:37:58.842Z,16.70
2017-08-09T23:40:26.348Z,16.80
2017-08-09T23:42:53.882Z,16.80
2017-08-09T23:45:21.394Z,16.80
2017-08-09T23:47:48.919Z,16.80
2017-08-09T23:50:16.428Z,16.80
2017-08-09T23:52:43.955Z,16.80
2017-08-09T23:55:11.463Z,16.80
2017-08-09T23:57:39.746Z,16.70
